createdAt,value
2023-03-13T00:01:10.731Z,12.60
2023-03-13T00:03:39.773Z,16.53
2023-03-13T00:06:07.790Z,18.20
2023-03-13T00:08:35.362Z,18.47
2023-03-13T00:11:04.330Z,34.23
2023-03-13T00:13:31.880Z,15.20
2023-03-13T00:16:03.372Z,32.83
2023-03-13T00:18:31.339Z,26.30
2023-03-13T00:21:01.315Z,24.63
2023-03-13T00:23:29.685Z,14.43
2023-03-13T00:25:59.263Z,22.43
2023-03-13T00:28:29.061Z,20.00
2023-03-13T00:31:02.195Z,8.90
2023-03-13T00:33:29.829Z,17.00
2023-03-13T00:36:00.997Z,20.60
2023-03-13T00:38:29.899Z,10.63
2023-03-13T00:41:01.991Z,12.63
2023-03-13T00:43:29.559Z,15.80
2023-03-13T00:45:57.337Z,22.30
2023-03-13T00:48:25.517Z,13.23
2023-03-13T00:50:54.886Z,18.03
2023-03-13T00:53:24.138Z,10.47
2023-03-13T00:55:53.516Z,9.23
2023-03-13T00:58:21.427Z,13.33
2023-03-13T01:00:48.919Z,13.50
2023-03-13T01:03:16.566Z,10.90
2023-03-13T01:05:44.346Z,14.37
2023-03-13T01:08:11.869Z,11.20
2023-03-13T01:10:40.653Z,15.90
2023-03-13T01:13:08.182Z,6.13
2023-03-13T01:15:36.955Z,14.97
2023-03-13T01:18:05.404Z,17.80
2023-03-13T01:20:33.374Z,19.80
2023-03-13T01:23:00.963Z,19.50
2023-03-13T01:25:28.432Z,19.43
2023-03-13T01:27:57.208Z,25.57
2023-03-13T01:30:24.717Z,20.10
2023-03-13T01:32:52.336Z,9.50
2023-03-13T01:35:20.082Z,18.07
2023-03-13T01:37:47.588Z,17.20
2023-03-13T01:40:15.836Z,11.73
2023-03-13T01:42:58.196Z,9.50
2023-03-13T01:46:04.754Z,18.00
2023-03-13T01:48:46.252Z,21.03
2023-03-13T01:51:20.356Z,16.73
2023-03-13T01:53:52.609Z,10.10
2023-03-13T01:56:23.646Z,19.40
2023-03-13T01:58:53.816Z,14.93
2023-03-13T02:01:21.610Z,25.20
2023-03-13T02:03:50.879Z,8.30
2023-03-13T02:06:19.154Z,20.03
2023-03-13T02:08:51.136Z,20.23
2023-03-13T02:11:26.302Z,13.20
2023-03-13T02:13:57.056Z,13.20
2023-03-13T02:16:25.232Z,10.07
2023-03-13T02:18:52.827Z,11.13
2023-03-13T02:21:33.591Z,18.80
2023-03-13T02:24:06.094Z,10.97
2023-03-13T02:26:34.920Z,14.10
2023-03-13T02:29:02.780Z,10.67
2023-03-13T02:31:30.749Z,23.20
2023-03-13T02:34:01.721Z,16.07
2023-03-13T02:36:31.918Z,16.67
2023-03-13T02:39:05.779Z,14.20
2023-03-13T02:41:35.978Z,14.20
2023-03-13T02:44:05.696Z,16.73
2023-03-13T02:46:44.965Z,17.10
2023-03-13T02:49:25.963Z,7.80
2023-03-13T02:51:56.974Z,15.43
2023-03-13T02:54:32.056Z,18.40
2023-03-13T02:57:04.139Z,18.13
2023-03-13T02:59:32.003Z,24.30
2023-03-13T03:01:59.684Z,17.53
2023-03-13T03:04:28.006Z,11.93
2023-03-13T03:06:57.559Z,10.70
2023-03-13T03:09:25.960Z,9.40
2023-03-13T03:11:58.068Z,19.10
2023-03-13T03:14:29.709Z,6.60
2023-03-13T03:16:57.817Z,16.20
2023-03-13T03:19:26.899Z,11.27
2023-03-13T03:21:55.001Z,7.23
2023-03-13T03:24:22.559Z,16.50
2023-03-13T03:26:50.350Z,16.63
2023-03-13T03:29:24.458Z,10.33
2023-03-13T03:31:56.373Z,29.53
2023-03-13T03:34:24.393Z,8.97
2023-03-13T03:36:52.325Z,9.20
2023-03-13T03:39:19.945Z,15.97
2023-03-13T03:41:47.593Z,12.20
2023-03-13T03:44:15.143Z,16.83
2023-03-13T03:46:56.718Z,16.17
2023-03-13T03:49:26.560Z,17.10
2023-03-13T03:51:54.182Z,8.63
2023-03-13T03:54:29.218Z,13.10
2023-03-13T03:56:57.236Z,22.97
2023-03-13T03:59:25.870Z,19.80
2023-03-13T04:01:59.639Z,15.20
2023-03-13T04:04:29.900Z,6.40
2023-03-13T04:07:03.560Z,7.83
2023-03-13T04:09:32.450Z,14.70
2023-03-13T04:12:01.665Z,13.13
2023-03-13T04:14:32.158Z,13.40
2023-03-13T04:17:02.723Z,8.30
2023-03-13T04:19:30.486Z,6.27
2023-03-13T04:21:58.074Z,9.10
2023-03-13T04:24:25.801Z,13.40
2023-03-13T04:26:53.319Z,18.23
2023-03-13T04:29:21.797Z,12.13
2023-03-13T04:32:00.158Z,18.40
2023-03-13T04:34:38.427Z,5.90
2023-03-13T04:37:05.957Z,18.57
2023-03-13T04:39:51.709Z,12.70
2023-03-13T04:42:39.649Z,15.07
2023-03-13T04:45:33.420Z,6.93
2023-03-13T04:48:14.559Z,11.77
2023-03-13T04:50:50.208Z,18.53
2023-03-13T04:53:31.502Z,20.97
2023-03-13T04:56:41.177Z,9.27
2023-03-13T04:59:28.980Z,6.67
2023-03-13T05:02:06.840Z,16.77
2023-03-13T05:04:57.498Z,11.97
2023-03-13T05:07:26.372Z,16.23
2023-03-13T05:10:05.975Z,12.17
2023-03-13T05:13:04.029Z,12.67
2023-03-13T05:15:38.560Z,5.43
2023-03-13T05:18:35.973Z,10.03
2023-03-13T05:21:12.984Z,14.40
2023-03-13T05:24:02.683Z,8.27
2023-03-13T05:27:03.548Z,10.40
2023-03-13T05:29:39.997Z,12.50
2023-03-13T05:32:16.486Z,8.80
2023-03-13T05:35:22.626Z,10.70
2023-03-13T05:38:08.852Z,8.70
2023-03-13T05:40:44.939Z,11.73
2023-03-13T05:43:44.653Z,6.13
2023-03-13T05:46:31.119Z,3.40
2023-03-13T05:49:15.483Z,8.27
2023-03-13T05:52:01.327Z,10.93
2023-03-13T05:54:47.743Z,5.20
2023-03-13T05:57:35.611Z,8.40
2023-03-13T06:00:22.182Z,6.73
2023-03-13T06:03:10.331Z,10.53
2023-03-13T06:05:42.313Z,8.80
2023-03-13T06:08:22.771Z,5.80
2023-03-13T06:10:51.182Z,8.07
2023-03-13T06:13:20.578Z,8.43
2023-03-13T06:15:54.140Z,11.37
2023-03-13T06:18:41.450Z,6.27
2023-03-13T06:21:08.907Z,8.63
2023-03-13T06:23:36.555Z,9.03
2023-03-13T06:26:04.260Z,9.87
2023-03-13T06:28:33.247Z,7.73
2023-03-13T06:31:02.525Z,6.30
2023-03-13T06:33:30.977Z,6.10
2023-03-13T06:35:58.849Z,10.13
2023-03-13T06:38:26.349Z,5.50
2023-03-13T06:40:53.852Z,2.13
2023-03-13T06:43:22.271Z,5.17
2023-03-13T06:45:51.389Z,4.40
2023-03-13T06:48:18.888Z,2.87
2023-03-13T06:50:47.159Z,2.47
2023-03-13T06:53:16.807Z,3.97
2023-03-13T06:55:44.674Z,6.83
2023-03-13T06:58:21.796Z,4.73
2023-03-13T07:00:57.891Z,4.07
2023-03-13T07:03:25.545Z,7.87
2023-03-13T07:05:57.018Z,4.10
2023-03-13T07:08:25.549Z,4.20
2023-03-13T07:10:53.371Z,4.17
2023-03-13T07:13:21.651Z,6.03
2023-03-13T07:15:49.274Z,3.33
2023-03-13T07:18:19.488Z,9.60
2023-03-13T07:20:54.231Z,8.60
2023-03-13T07:23:21.766Z,13.73
2023-03-13T07:25:55.565Z,3.93
2023-03-13T07:28:23.512Z,3.30
2023-03-13T07:30:51.303Z,4.97
2023-03-13T07:33:20.563Z,3.70
2023-03-13T07:35:51.707Z,5.63
2023-03-13T07:38:20.047Z,4.67
2023-03-13T07:40:51.111Z,2.30
2023-03-13T07:43:19.260Z,7.90
2023-03-13T07:45:54.927Z,5.03
2023-03-13T07:48:24.717Z,8.33
2023-03-13T07:50:52.670Z,3.93
2023-03-13T07:53:21.894Z,4.40
2023-03-13T07:55:57.540Z,4.33
2023-03-13T07:58:26.184Z,4.43
2023-03-13T08:00:54.374Z,6.10
2023-03-13T08:03:22.177Z,2.50
2023-03-13T08:05:59.030Z,2.07
2023-03-13T08:08:26.665Z,2.77
2023-03-13T08:10:54.182Z,2.80
2023-03-13T08:13:21.806Z,2.10
2023-03-13T08:15:49.235Z,4.13
2023-03-13T08:18:16.665Z,4.47
2023-03-13T08:20:45.646Z,3.70
2023-03-13T08:23:14.545Z,3.03
2023-03-13T08:25:42.040Z,3.53
2023-03-13T08:28:10.901Z,2.33
2023-03-13T08:30:38.319Z,3.00
2023-03-13T08:33:07.797Z,3.83
2023-03-13T08:35:35.378Z,3.53
2023-03-13T08:38:06.888Z,3.27
2023-03-13T08:40:35.693Z,3.23
2023-03-13T08:43:03.240Z,2.80
2023-03-13T08:45:30.683Z,3.47
2023-03-13T08:47:58.121Z,3.37
2023-03-13T08:50:25.718Z,4.07
2023-03-13T08:52:53.215Z,5.87
2023-03-13T08:55:20.810Z,5.13
2023-03-13T08:57:49.584Z,5.90
2023-03-13T09:00:18.719Z,4.57
2023-03-13T09:02:46.242Z,6.10
2023-03-13T09:05:13.761Z,4.17
2023-03-13T09:07:41.439Z,4.50
2023-03-13T09:10:09.783Z,5.00
2023-03-13T09:12:37.268Z,6.43
2023-03-13T09:15:07.334Z,5.80
2023-03-13T09:17:34.992Z,5.47
2023-03-13T09:20:02.584Z,5.60
2023-03-13T09:22:30.042Z,3.90
2023-03-13T09:24:57.690Z,5.67
2023-03-13T09:27:25.132Z,8.03
2023-03-13T09:29:52.571Z,7.10
2023-03-13T09:32:21.468Z,5.90
2023-03-13T09:34:49.053Z,3.73
2023-03-13T09:37:17.724Z,3.70
2023-03-13T09:39:45.294Z,3.20
2023-03-13T09:42:17.426Z,3.30
2023-03-13T09:44:49.101Z,3.07
2023-03-13T09:47:25.293Z,6.47
2023-03-13T09:49:57.935Z,3.00
2023-03-13T09:52:26.922Z,4.97
2023-03-13T09:54:59.721Z,4.03
2023-03-13T09:57:34.562Z,2.60
2023-03-13T10:00:09.849Z,2.70
2023-03-13T10:02:40.459Z,3.83
2023-03-13T10:05:14.944Z,3.10
2023-03-13T10:07:42.465Z,4.67
2023-03-13T10:10:16.308Z,2.60
2023-03-13T10:12:47.239Z,2.67
2023-03-13T10:15:38.619Z,3.63
2023-03-13T10:18:16.823Z,2.83
2023-03-13T10:20:48.253Z,3.57
2023-03-13T10:23:21.038Z,7.70
2023-03-13T10:25:48.775Z,4.20
2023-03-13T10:28:19.289Z,1.93
2023-03-13T10:30:49.443Z,2.80
2023-03-13T10:33:24.266Z,5.50
2023-03-13T10:36:04.341Z,6.10
2023-03-13T10:38:46.041Z,3.47
2023-03-13T10:41:24.578Z,2.50
2023-03-13T10:43:53.987Z,3.13
2023-03-13T10:46:29.281Z,3.13
2023-03-13T10:49:01.113Z,2.60
2023-03-13T10:51:39.140Z,2.40
2023-03-13T10:54:17.613Z,3.77
2023-03-13T10:56:45.293Z,4.20
2023-03-13T10:59:23.550Z,4.63
2023-03-13T11:01:52.238Z,2.90
2023-03-13T11:04:29.561Z,2.40
2023-03-13T11:07:02.938Z,7.87
2023-03-13T11:09:30.685Z,3.30
2023-03-13T11:12:05.016Z,3.43
2023-03-13T11:14:32.503Z,3.70
2023-03-13T11:17:05.754Z,3.00
2023-03-13T11:19:51.063Z,5.17
2023-03-13T11:22:35.898Z,4.20
2023-03-13T11:25:15.780Z,2.70
2023-03-13T11:27:49.434Z,4.27
2023-03-13T11:30:26.587Z,3.30
2023-03-13T11:32:56.956Z,3.87
2023-03-13T11:35:40.652Z,2.30
2023-03-13T11:38:14.201Z,3.27
2023-03-13T11:40:50.707Z,4.00
2023-03-13T11:43:42.221Z,2.33
2023-03-13T11:46:23.130Z,3.37
2023-03-13T11:49:14.970Z,2.60
2023-03-13T11:51:55.726Z,4.80
2023-03-13T11:54:51.026Z,8.40
2023-03-13T11:57:29.435Z,2.70
2023-03-13T12:00:14.965Z,3.23
2023-03-13T12:02:49.713Z,2.50
2023-03-13T12:05:20.436Z,5.30
2023-03-13T12:07:54.388Z,2.57
2023-03-13T12:10:27.446Z,2.43
2023-03-13T12:13:03.624Z,2.40
2023-03-13T12:15:35.544Z,2.90
2023-03-13T12:18:06.706Z,2.40
2023-03-13T12:20:42.044Z,5.33
2023-03-13T12:23:20.014Z,3.67
2023-03-13T12:25:53.987Z,2.90
2023-03-13T12:28:32.858Z,6.50
2023-03-13T12:31:08.741Z,3.67
2023-03-13T12:33:43.661Z,2.83
2023-03-13T12:36:15.523Z,2.37
2023-03-13T12:38:50.924Z,3.40
2023-03-13T12:41:26.839Z,2.03
2023-03-13T12:44:11.503Z,3.87
2023-03-13T12:46:44.765Z,2.93
2023-03-13T12:49:31.308Z,4.53
2023-03-13T12:52:13.098Z,2.50
2023-03-13T12:54:54.872Z,2.23
2023-03-13T12:57:42.818Z,2.20
2023-03-13T13:00:17.107Z,2.20
2023-03-13T13:02:44.693Z,2.40
2023-03-13T13:05:20.423Z,2.40
2023-03-13T13:07:55.428Z,2.33
2023-03-13T13:10:26.309Z,2.30
2023-03-13T13:13:20.031Z,2.00
2023-03-13T13:15:48.981Z,4.47
2023-03-13T13:18:25.966Z,2.23
2023-03-13T13:21:21.837Z,3.40
2023-03-13T13:23:53.645Z,3.20
2023-03-13T13:26:52.633Z,3.13
2023-03-13T13:29:57.188Z,2.87
2023-03-13T13:32:40.420Z,2.30
2023-03-13T13:35:22.192Z,2.17
2023-03-13T13:37:50.214Z,6.33
2023-03-13T13:40:24.567Z,2.20
2023-03-13T13:42:55.924Z,1.93
2023-03-13T13:45:58.182Z,1.70
2023-03-13T13:48:32.803Z,2.27
2023-03-13T13:51:33.877Z,3.70
2023-03-13T13:54:02.710Z,2.90
2023-03-13T13:56:36.441Z,2.10
2023-03-13T13:59:15.960Z,1.67
2023-03-13T14:01:44.092Z,2.20
2023-03-13T14:04:16.407Z,1.90
2023-03-13T14:06:48.391Z,3.83
2023-03-13T14:09:29.943Z,1.63
2023-03-13T14:11:57.772Z,2.13
2023-03-13T14:14:26.738Z,1.17
2023-03-13T14:16:57.251Z,1.30
2023-03-13T14:19:27.619Z,2.90
2023-03-13T14:22:02.877Z,3.23
2023-03-13T14:24:30.356Z,1.33
2023-03-13T14:26:58.064Z,1.20
2023-03-13T14:29:27.017Z,1.50
2023-03-13T14:31:56.525Z,1.67
2023-03-13T14:34:24.577Z,2.63
2023-03-13T14:37:01.452Z,2.20
2023-03-13T14:39:44.988Z,1.10
2023-03-13T14:42:14.977Z,3.17
2023-03-13T14:44:46.600Z,1.90
2023-03-13T14:47:26.247Z,0.90
2023-03-13T14:49:58.910Z,1.30
2023-03-13T14:52:28.026Z,1.20
2023-03-13T14:54:57.638Z,1.10
2023-03-13T14:57:27.550Z,1.27
2023-03-13T15:00:17.106Z,2.80
2023-03-13T15:02:44.567Z,2.57
2023-03-13T15:05:34.120Z,1.50
2023-03-13T15:08:01.833Z,1.00
2023-03-13T15:10:34.178Z,1.63
2023-03-13T15:13:15.841Z,1.93
2023-03-13T15:15:44.814Z,1.17
2023-03-13T15:18:20.743Z,1.27
2023-03-13T15:20:53.193Z,1.87
2023-03-13T15:23:21.790Z,2.50
2023-03-13T15:25:49.886Z,0.90
2023-03-13T15:28:19.437Z,4.33
2023-03-13T15:30:51.441Z,0.83
2023-03-13T15:33:22.660Z,1.00
2023-03-13T15:35:51.428Z,1.70
2023-03-13T15:38:21.276Z,1.10
2023-03-13T15:40:49.170Z,2.50
2023-03-13T15:43:17.896Z,4.63
2023-03-13T15:45:48.146Z,2.90
2023-03-13T15:48:19.745Z,1.80
2023-03-13T15:50:50.326Z,0.97
2023-03-13T15:53:19.937Z,1.43
2023-03-13T15:55:48.185Z,0.97
2023-03-13T15:58:15.866Z,1.97
2023-03-13T16:00:43.943Z,1.30
2023-03-13T16:03:16.139Z,1.37
2023-03-13T16:05:44.922Z,0.93
2023-03-13T16:08:23.181Z,1.63
2023-03-13T16:11:01.866Z,4.63
2023-03-13T16:13:29.458Z,1.57
2023-03-13T16:15:56.924Z,0.90
2023-03-13T16:18:26.418Z,0.90
2023-03-13T16:20:55.220Z,2.20
2023-03-13T16:23:22.680Z,1.00
2023-03-13T16:25:50.229Z,1.10
2023-03-13T16:28:17.798Z,1.33
2023-03-13T16:30:47.238Z,1.67
2023-03-13T16:33:14.809Z,1.00
2023-03-13T16:35:42.424Z,2.10
2023-03-13T16:38:12.546Z,0.90
2023-03-13T16:40:40.028Z,1.93
2023-03-13T16:43:07.536Z,2.10
2023-03-13T16:45:35.113Z,1.80
2023-03-13T16:48:02.558Z,1.10
2023-03-13T16:50:33.662Z,1.53
2023-03-13T16:53:01.629Z,1.10
2023-03-13T16:55:36.166Z,1.30
2023-03-13T16:58:04.071Z,1.10
2023-03-13T17:00:32.480Z,3.07
2023-03-13T17:03:01.256Z,0.90
2023-03-13T17:05:29.099Z,1.00
2023-03-13T17:07:57.005Z,1.77
2023-03-13T17:10:27.561Z,1.30
2023-03-13T17:12:56.707Z,1.70
2023-03-13T17:15:25.716Z,4.40
2023-03-13T17:17:54.853Z,2.07
2023-03-13T17:20:25.549Z,1.10
2023-03-13T17:22:53.480Z,1.40
2023-03-13T17:25:21.075Z,1.60
2023-03-13T17:27:48.878Z,1.23
2023-03-13T17:30:21.861Z,1.23
2023-03-13T17:32:50.138Z,1.40
2023-03-13T17:35:18.573Z,2.00
2023-03-13T17:37:46.191Z,4.33
2023-03-13T17:40:17.796Z,2.00
2023-03-13T17:42:45.559Z,1.63
2023-03-13T17:45:13.843Z,1.40
2023-03-13T17:47:43.254Z,2.53
2023-03-13T17:50:19.478Z,1.20
2023-03-13T17:52:47.321Z,1.53
2023-03-13T17:55:14.935Z,2.50
2023-03-13T17:57:43.662Z,2.27
2023-03-13T18:00:23.210Z,1.83
2023-03-13T18:02:52.336Z,1.70
2023-03-13T18:05:19.896Z,1.70
2023-03-13T18:07:48.429Z,2.87
2023-03-13T18:10:21.584Z,2.70
2023-03-13T18:12:49.129Z,1.30
2023-03-13T18:15:16.587Z,1.30
2023-03-13T18:17:44.433Z,1.40
2023-03-13T18:20:18.052Z,1.47
2023-03-13T18:22:46.674Z,1.43
2023-03-13T18:25:14.639Z,2.53
2023-03-13T18:27:42.417Z,1.67
2023-03-13T18:30:16.881Z,1.20
2023-03-13T18:32:44.500Z,1.30
2023-03-13T18:35:13.604Z,1.20
2023-03-13T18:37:44.541Z,1.83
2023-03-13T18:40:17.755Z,2.03
2023-03-13T18:42:45.405Z,1.93
2023-03-13T18:45:16.318Z,1.70
2023-03-13T18:47:44.156Z,3.63
2023-03-13T18:50:24.951Z,1.63
2023-03-13T18:52:55.343Z,4.60
2023-03-13T18:55:22.928Z,1.20
2023-03-13T18:57:50.637Z,1.30
2023-03-13T19:00:20.447Z,2.70
2023-03-13T19:02:49.442Z,3.00
2023-03-13T19:05:18.179Z,1.50
2023-03-13T19:07:46.236Z,2.10
2023-03-13T19:10:20.888Z,1.83
2023-03-13T19:12:48.503Z,2.33
2023-03-13T19:15:16.362Z,1.97
2023-03-13T19:17:43.908Z,1.60
2023-03-13T19:20:15.274Z,1.70
2023-03-13T19:22:43.003Z,2.13
2023-03-13T19:25:11.855Z,1.20
2023-03-13T19:27:41.367Z,1.37
2023-03-13T19:30:16.718Z,2.30
2023-03-13T19:32:44.292Z,1.97
2023-03-13T19:35:13.173Z,1.70
2023-03-13T19:37:40.840Z,1.90
2023-03-13T19:40:16.859Z,1.50
2023-03-13T19:42:45.805Z,1.30
2023-03-13T19:45:13.697Z,1.57
2023-03-13T19:47:41.247Z,1.93
2023-03-13T19:50:17.320Z,2.53
2023-03-13T19:52:45.782Z,1.83
2023-03-13T19:55:13.565Z,1.30
2023-03-13T19:57:41.642Z,4.57
2023-03-13T20:00:19.610Z,2.17
2023-03-13T20:02:47.120Z,1.40
2023-03-13T20:05:14.637Z,2.20
2023-03-13T20:07:42.110Z,3.13
2023-03-13T20:10:10.598Z,5.60
2023-03-13T20:12:39.106Z,4.47
2023-03-13T20:15:07.890Z,1.97
2023-03-13T20:17:36.829Z,1.83
2023-03-13T20:20:07.754Z,4.40
2023-03-13T20:22:35.577Z,1.73
2023-03-13T20:25:03.429Z,2.03
2023-03-13T20:27:30.913Z,2.10
2023-03-13T20:29:59.618Z,7.50
2023-03-13T20:32:27.757Z,3.07
2023-03-13T20:34:56.630Z,3.00
2023-03-13T20:37:24.242Z,2.77
2023-03-13T20:39:51.715Z,2.87
2023-03-13T20:42:20.800Z,2.10
2023-03-13T20:44:48.270Z,3.33
2023-03-13T20:47:15.751Z,3.47
2023-03-13T20:49:43.293Z,2.60
2023-03-13T20:52:12.094Z,3.40
2023-03-13T20:54:39.609Z,8.03
2023-03-13T20:57:08.423Z,4.27
2023-03-13T20:59:35.920Z,5.10
2023-03-13T21:02:03.461Z,4.47
2023-03-13T21:04:31.111Z,3.23
2023-03-13T21:07:04.299Z,2.20
2023-03-13T21:09:33.993Z,1.97
2023-03-13T21:12:02.606Z,1.50
2023-03-13T21:14:30.676Z,2.50
2023-03-13T21:16:58.587Z,2.93
2023-03-13T21:19:26.984Z,2.13
2023-03-13T21:21:54.462Z,2.07
2023-03-13T21:24:24.703Z,1.93
2023-03-13T21:26:55.115Z,4.10
2023-03-13T21:29:22.684Z,1.53
2023-03-13T21:31:50.178Z,1.77
2023-03-13T21:34:17.738Z,2.80
2023-03-13T21:36:45.252Z,1.63
2023-03-13T21:39:12.817Z,2.00
2023-03-13T21:41:40.259Z,1.77
2023-03-13T21:44:09.060Z,3.27
2023-03-13T21:46:36.552Z,2.73
2023-03-13T21:49:04.548Z,4.67
2023-03-13T21:51:32.224Z,2.20
2023-03-13T21:53:59.740Z,1.60
2023-03-13T21:56:27.438Z,2.00
2023-03-13T21:58:55.128Z,1.50
2023-03-13T22:01:23.977Z,2.30
2023-03-13T22:03:52.025Z,3.00
2023-03-13T22:06:22.540Z,3.93
2023-03-13T22:08:51.999Z,1.70
2023-03-13T22:11:19.709Z,4.40
2023-03-13T22:13:47.199Z,1.63
2023-03-13T22:16:28.956Z,5.53
2023-03-13T22:18:57.811Z,6.40
2023-03-13T22:21:25.520Z,2.77
2023-03-13T22:23:52.969Z,2.23
2023-03-13T22:26:20.476Z,3.47
2023-03-13T22:28:48.011Z,3.43
2023-03-13T22:31:15.480Z,2.87
2023-03-13T22:33:43.060Z,3.57
2023-03-13T22:36:13.597Z,4.50
2023-03-13T22:38:41.139Z,2.87
2023-03-13T22:41:10.151Z,4.00
2023-03-13T22:43:37.709Z,4.00
2023-03-13T22:46:06.989Z,1.93
2023-03-13T22:48:34.559Z,2.03
2023-03-13T22:51:03.947Z,5.00
2023-03-13T22:53:33.443Z,2.50
2023-03-13T22:56:01.297Z,1.70
2023-03-13T22:58:29.126Z,5.23
2023-03-13T23:00:56.755Z,2.97
2023-03-13T23:03:24.347Z,1.73
2023-03-13T23:05:51.958Z,1.70
2023-03-13T23:08:21.478Z,3.30
2023-03-13T23:10:50.326Z,3.00
2023-03-13T23:13:17.878Z,1.53
2023-03-13T23:15:55.527Z,3.37
2023-03-13T23:18:24.074Z,2.20
2023-03-13T23:20:51.558Z,2.17
2023-03-13T23:23:19.456Z,1.40
2023-03-13T23:25:47.186Z,4.30
2023-03-13T23:28:16.025Z,2.00
2023-03-13T23:30:43.523Z,2.43
2023-03-13T23:33:10.954Z,2.20
2023-03-13T23:35:38.800Z,5.13
2023-03-13T23:38:06.288Z,1.50
2023-03-13T23:40:33.762Z,5.27
2023-03-13T23:43:01.455Z,2.70
2023-03-13T23:45:30.516Z,5.30
2023-03-13T23:47:58.023Z,2.37
2023-03-13T23:50:25.514Z,1.60
2023-03-13T23:52:52.941Z,3.30
2023-03-13T23:55:20.361Z,4.90
2023-03-13T23:57:49.496Z,1.33
